sensor_id;sensor_type;location;lat;lon;timestamp;P1;durP1;ratioP1;P2;durP2;ratioP2
13879;SDS011;7010;48.200;16.332;2022-12-04T00:01:24;46.38;;;26.55;;
13879;SDS011;7010;48.200;16.332;2022-12-04T00:03:55;52.47;;;31.83;;
13879;SDS011;7010;48.200;16.332;2022-12-04T00:06:26;40.30;;;28.98;;
13879;SDS011;7010;48.200;16.332;2022-12-04T00:08:55;40.00;;;31.15;;
13879;SDS011;7010;48.200;16.332;2022-12-04T00:11:24;41.83;;;31.60;;
13879;SDS011;7010;48.200;16.332;2022-12-04T00:13:55;39.13;;;29.80;;
13879;SDS011;7010;48.200;16.332;2022-12-04T00:16:31;56.17;;;32.35;;
13879;SDS011;7010;48.200;16.332;2022-12-04T00:19:00;42.72;;;31.65;;
13879;SDS011;7010;48.200;16.332;2022-12-04T00:21:31;41.35;;;30.52;;
13879;SDS011;7010;48.200;16.332;2022-12-04T00:23:59;36.10;;;28.23;;
13879;SDS011;7010;48.200;16.332;2022-12-04T00:26:28;40.40;;;30.60;;
13879;SDS011;7010;48.200;16.332;2022-12-04T00:28:57;39.42;;;32.15;;
13879;SDS011;7010;48.200;16.332;2022-12-04T00:31:27;48.97;;;31.67;;
13879;SDS011;7010;48.200;16.332;2022-12-04T00:33:57;46.17;;;35.35;;
13879;SDS011;7010;48.200;16.332;2022-12-04T00:36:28;43.78;;;32.50;;
13879;SDS011;7010;48.200;16.332;2022-12-04T00:38:58;46.78;;;31.58;;
13879;SDS011;7010;48.200;16.332;2022-12-04T00:41:28;39.03;;;30.33;;
13879;SDS011;7010;48.200;16.332;2022-12-04T00:43:57;38.47;;;30.73;;
13879;SDS011;7010;48.200;16.332;2022-12-04T00:46:26;52.92;;;31.92;;
13879;SDS011;7010;48.200;16.332;2022-12-04T00:48:55;45.38;;;30.80;;
13879;SDS011;7010;48.200;16.332;2022-12-04T00:51:24;45.38;;;32.55;;
13879;SDS011;7010;48.200;16.332;2022-12-04T00:53:53;45.47;;;32.53;;
13879;SDS011;7010;48.200;16.332;2022-12-04T00:56:23;41.08;;;31.88;;
13879;SDS011;7010;48.200;16.332;2022-12-04T00:58:53;40.03;;;30.05;;
13879;SDS011;7010;48.200;16.332;2022-12-04T01:01:23;50.72;;;29.90;;
13879;SDS011;7010;48.200;16.332;2022-12-04T01:03:52;41.00;;;30.95;;
13879;SDS011;7010;48.200;16.332;2022-12-04T01:06:22;51.45;;;31.67;;
13879;SDS011;7010;48.200;16.332;2022-12-04T01:08:51;63.72;;;31.65;;
13879;SDS011;7010;48.200;16.332;2022-12-04T01:11:23;41.83;;;32.63;;
13879;SDS011;7010;48.200;16.332;2022-12-04T01:13:52;35.33;;;28.88;;
13879;SDS011;7010;48.200;16.332;2022-12-04T01:16:22;45.22;;;31.75;;
13879;SDS011;7010;48.200;16.332;2022-12-04T01:18:52;47.30;;;33.33;;
13879;SDS011;7010;48.200;16.332;2022-12-04T01:21:20;47.58;;;33.17;;
13879;SDS011;7010;48.200;16.332;2022-12-04T01:23:49;48.85;;;32.00;;
13879;SDS011;7010;48.200;16.332;2022-12-04T01:26:18;40.60;;;30.92;;
13879;SDS011;7010;48.200;16.332;2022-12-04T01:28:47;46.30;;;32.25;;
13879;SDS011;7010;48.200;16.332;2022-12-04T01:31:16;47.30;;;34.75;;
13879;SDS011;7010;48.200;16.332;2022-12-04T01:33:46;50.58;;;32.80;;
13879;SDS011;7010;48.200;16.332;2022-12-04T01:36:18;64.03;;;34.30;;
13879;SDS011;7010;48.200;16.332;2022-12-04T01:38:48;50.55;;;32.85;;
13879;SDS011;7010;48.200;16.332;2022-12-04T01:41:19;44.95;;;31.95;;
13879;SDS011;7010;48.200;16.332;2022-12-04T01:44:10;40.40;;;30.83;;
13879;SDS011;7010;48.200;16.332;2022-12-04T01:46:43;44.60;;;31.73;;
13879;SDS011;7010;48.200;16.332;2022-12-04T01:49:14;34.63;;;26.95;;
13879;SDS011;7010;48.200;16.332;2022-12-04T01:51:47;37.33;;;27.92;;
13879;SDS011;7010;48.200;16.332;2022-12-04T01:54:19;33.47;;;25.52;;
13879;SDS011;7010;48.200;16.332;2022-12-04T01:56:56;34.38;;;27.10;;
13879;SDS011;7010;48.200;16.332;2022-12-04T01:59:30;40.65;;;27.83;;
13879;SDS011;7010;48.200;16.332;2022-12-04T02:02:03;32.55;;;25.33;;
13879;SDS011;7010;48.200;16.332;2022-12-04T02:04:34;37.50;;;25.63;;
13879;SDS011;7010;48.200;16.332;2022-12-04T02:07:04;33.85;;;24.38;;
13879;SDS011;7010;48.200;16.332;2022-12-04T02:09:33;30.88;;;22.70;;
13879;SDS011;7010;48.200;16.332;2022-12-04T02:12:06;36.05;;;22.80;;
13879;SDS011;7010;48.200;16.332;2022-12-04T02:14:45;31.80;;;24.95;;
13879;SDS011;7010;48.200;16.332;2022-12-04T02:17:22;29.77;;;23.83;;
13879;SDS011;7010;48.200;16.332;2022-12-04T02:20:03;30.95;;;23.58;;
13879;SDS011;7010;48.200;16.332;2022-12-04T02:22:45;30.90;;;23.50;;
13879;SDS011;7010;48.200;16.332;2022-12-04T02:25:37;32.90;;;24.23;;
13879;SDS011;7010;48.200;16.332;2022-12-04T02:28:13;39.10;;;26.38;;
13879;SDS011;7010;48.200;16.332;2022-12-04T02:30:48;33.47;;;24.40;;
13879;SDS011;7010;48.200;16.332;2022-12-04T02:33:20;33.92;;;24.30;;
13879;SDS011;7010;48.200;16.332;2022-12-04T02:35:54;40.10;;;26.75;;
13879;SDS011;7010;48.200;16.332;2022-12-04T02:38:30;29.65;;;25.42;;
13879;SDS011;7010;48.200;16.332;2022-12-04T02:41:04;48.20;;;27.08;;
13879;SDS011;7010;48.200;16.332;2022-12-04T02:43:40;42.20;;;27.90;;
13879;SDS011;7010;48.200;16.332;2022-12-04T02:46:13;60.70;;;28.10;;
13879;SDS011;7010;48.200;16.332;2022-12-04T02:48:45;35.90;;;27.20;;
13879;SDS011;7010;48.200;16.332;2022-12-04T02:51:18;35.42;;;26.58;;
13879;SDS011;7010;48.200;16.332;2022-12-04T02:53:49;37.88;;;27.92;;
13879;SDS011;7010;48.200;16.332;2022-12-04T02:56:21;38.63;;;28.92;;
13879;SDS011;7010;48.200;16.332;2022-12-04T02:58:55;42.28;;;30.27;;
13879;SDS011;7010;48.200;16.332;2022-12-04T03:01:26;47.40;;;32.92;;
13879;SDS011;7010;48.200;16.332;2022-12-04T03:03:59;44.08;;;33.17;;
13879;SDS011;7010;48.200;16.332;2022-12-04T03:06:32;45.20;;;31.98;;
13879;SDS011;7010;48.200;16.332;2022-12-04T03:09:06;39.22;;;33.15;;
13879;SDS011;7010;48.200;16.332;2022-12-04T03:11:37;39.55;;;32.72;;
13879;SDS011;7010;48.200;16.332;2022-12-04T03:14:12;48.38;;;34.25;;
13879;SDS011;7010;48.200;16.332;2022-12-04T03:16:45;41.92;;;33.22;;
13879;SDS011;7010;48.200;16.332;2022-12-04T03:19:17;47.67;;;34.63;;
13879;SDS011;7010;48.200;16.332;2022-12-04T03:21:50;61.38;;;36.00;;
13879;SDS011;7010;48.200;16.332;2022-12-04T03:24:22;44.25;;;33.72;;
13879;SDS011;7010;48.200;16.332;2022-12-04T03:26:55;50.85;;;35.85;;
13879;SDS011;7010;48.200;16.332;2022-12-04T03:29:29;51.55;;;35.80;;
13879;SDS011;7010;48.200;16.332;2022-12-04T03:32:02;46.50;;;32.30;;
13879;SDS011;7010;48.200;16.332;2022-12-04T03:34:37;42.58;;;32.97;;
13879;SDS011;7010;48.200;16.332;2022-12-04T03:37:12;40.63;;;32.38;;
13879;SDS011;7010;48.200;16.332;2022-12-04T03:39:45;39.10;;;33.70;;
13879;SDS011;7010;48.200;16.332;2022-12-04T03:42:22;37.60;;;32.22;;
13879;SDS011;7010;48.200;16.332;2022-12-04T03:44:57;39.78;;;32.83;;
13879;SDS011;7010;48.200;16.332;2022-12-04T03:47:30;32.65;;;29.08;;
13879;SDS011;7010;48.200;16.332;2022-12-04T03:50:06;49.85;;;32.92;;
13879;SDS011;7010;48.200;16.332;2022-12-04T03:52:39;48.15;;;34.83;;
13879;SDS011;7010;48.200;16.332;2022-12-04T03:55:17;49.95;;;34.80;;
13879;SDS011;7010;48.200;16.332;2022-12-04T03:57:51;45.08;;;32.35;;
13879;SDS011;7010;48.200;16.332;2022-12-04T04:00:28;54.97;;;31.70;;
13879;SDS011;7010;48.200;16.332;2022-12-04T04:03:01;41.80;;;30.95;;
13879;SDS011;7010;48.200;16.332;2022-12-04T04:05:34;37.95;;;28.80;;
13879;SDS011;7010;48.200;16.332;2022-12-04T04:08:05;47.55;;;31.15;;
13879;SDS011;7010;48.200;16.332;2022-12-04T04:11:04;37.58;;;30.67;;
13879;SDS011;7010;48.200;16.332;2022-12-04T04:13:39;40.88;;;32.83;;
13879;SDS011;7010;48.200;16.332;2022-12-04T04:16:30;43.05;;;32.38;;
13879;SDS011;7010;48.200;16.332;2022-12-04T04:19:19;35.45;;;31.67;;
13879;SDS011;7010;48.200;16.332;2022-12-04T04:22:07;37.90;;;30.58;;
13879;SDS011;7010;48.200;16.332;2022-12-04T04:24:54;34.13;;;29.35;;
13879;SDS011;7010;48.200;16.332;2022-12-04T04:27:28;45.58;;;32.08;;
13879;SDS011;7010;48.200;16.332;2022-12-04T04:29:57;44.80;;;32.88;;
13879;SDS011;7010;48.200;16.332;2022-12-04T04:32:29;44.70;;;34.75;;
13879;SDS011;7010;48.200;16.332;2022-12-04T04:35:03;42.35;;;34.10;;
13879;SDS011;7010;48.200;16.332;2022-12-04T04:37:39;35.08;;;29.95;;
13879;SDS011;7010;48.200;16.332;2022-12-04T04:40:21;47.63;;;32.15;;
13879;SDS011;7010;48.200;16.332;2022-12-04T04:42:56;43.83;;;32.97;;
13879;SDS011;7010;48.200;16.332;2022-12-04T04:45:30;37.35;;;32.70;;
13879;SDS011;7010;48.200;16.332;2022-12-04T04:48:05;47.45;;;35.47;;
13879;SDS011;7010;48.200;16.332;2022-12-04T04:50:36;42.35;;;33.92;;
13879;SDS011;7010;48.200;16.332;2022-12-04T04:53:07;48.60;;;36.00;;
13879;SDS011;7010;48.200;16.332;2022-12-04T04:55:40;39.88;;;33.58;;
13879;SDS011;7010;48.200;16.332;2022-12-04T04:58:09;39.30;;;34.72;;
13879;SDS011;7010;48.200;16.332;2022-12-04T05:00:39;42.08;;;35.05;;
13879;SDS011;7010;48.200;16.332;2022-12-04T05:03:11;42.22;;;34.03;;
13879;SDS011;7010;48.200;16.332;2022-12-04T05:05:40;41.80;;;34.53;;
13879;SDS011;7010;48.200;16.332;2022-12-04T05:08:08;40.42;;;32.95;;
13879;SDS011;7010;48.200;16.332;2022-12-04T05:10:37;34.95;;;31.20;;
13879;SDS011;7010;48.200;16.332;2022-12-04T05:13:05;40.25;;;34.72;;
13879;SDS011;7010;48.200;16.332;2022-12-04T05:15:34;42.17;;;34.22;;
13879;SDS011;7010;48.200;16.332;2022-12-04T05:18:02;49.10;;;35.53;;
13879;SDS011;7010;48.200;16.332;2022-12-04T05:20:33;41.17;;;33.33;;
13879;SDS011;7010;48.200;16.332;2022-12-04T05:23:03;37.10;;;32.20;;
13879;SDS011;7010;48.200;16.332;2022-12-04T05:25:32;39.45;;;31.88;;
13879;SDS011;7010;48.200;16.332;2022-12-04T05:28:01;45.15;;;35.65;;
13879;SDS011;7010;48.200;16.332;2022-12-04T05:30:30;43.13;;;34.92;;
13879;SDS011;7010;48.200;16.332;2022-12-04T05:32:58;41.45;;;31.60;;
13879;SDS011;7010;48.200;16.332;2022-12-04T05:35:27;40.83;;;33.72;;
13879;SDS011;7010;48.200;16.332;2022-12-04T05:37:57;37.13;;;32.40;;
13879;SDS011;7010;48.200;16.332;2022-12-04T05:40:25;41.75;;;35.22;;
13879;SDS011;7010;48.200;16.332;2022-12-04T05:42:53;37.90;;;32.00;;
13879;SDS011;7010;48.200;16.332;2022-12-04T05:45:22;40.80;;;32.95;;
13879;SDS011;7010;48.200;16.332;2022-12-04T05:47:50;50.55;;;36.38;;
13879;SDS011;7010;48.200;16.332;2022-12-04T05:50:18;41.58;;;33.88;;
13879;SDS011;7010;48.200;16.332;2022-12-04T05:52:47;37.60;;;32.28;;
13879;SDS011;7010;48.200;16.332;2022-12-04T05:55:17;39.30;;;35.05;;
13879;SDS011;7010;48.200;16.332;2022-12-04T05:57:45;39.00;;;32.78;;
13879;SDS011;7010;48.200;16.332;2022-12-04T06:00:14;42.00;;;32.50;;
13879;SDS011;7010;48.200;16.332;2022-12-04T06:02:43;44.47;;;35.03;;
13879;SDS011;7010;48.200;16.332;2022-12-04T06:05:12;36.25;;;32.17;;
13879;SDS011;7010;48.200;16.332;2022-12-04T06:07:40;47.13;;;35.70;;
13879;SDS011;7010;48.200;16.332;2022-12-04T06:10:09;43.00;;;33.35;;
13879;SDS011;7010;48.200;16.332;2022-12-04T06:12:38;43.63;;;34.60;;
13879;SDS011;7010;48.200;16.332;2022-12-04T06:15:07;46.03;;;37.22;;
13879;SDS011;7010;48.200;16.332;2022-12-04T06:17:36;40.08;;;33.42;;
13879;SDS011;7010;48.200;16.332;2022-12-04T06:20:05;40.47;;;33.65;;
13879;SDS011;7010;48.200;16.332;2022-12-04T06:22:37;51.13;;;37.22;;
13879;SDS011;7010;48.200;16.332;2022-12-04T06:25:06;44.50;;;35.10;;
13879;SDS011;7010;48.200;16.332;2022-12-04T06:27:35;47.75;;;33.95;;
13879;SDS011;7010;48.200;16.332;2022-12-04T06:30:06;52.47;;;36.20;;
13879;SDS011;7010;48.200;16.332;2022-12-04T06:32:35;43.65;;;35.13;;
13879;SDS011;7010;48.200;16.332;2022-12-04T06:35:04;39.30;;;35.13;;
13879;SDS011;7010;48.200;16.332;2022-12-04T06:37:33;48.05;;;36.83;;
13879;SDS011;7010;48.200;16.332;2022-12-04T06:40:01;47.30;;;33.83;;
13879;SDS011;7010;48.200;16.332;2022-12-04T06:42:30;50.78;;;37.05;;
13879;SDS011;7010;48.200;16.332;2022-12-04T06:44:58;45.53;;;35.67;;
13879;SDS011;7010;48.200;16.332;2022-12-04T06:47:28;45.33;;;34.88;;
13879;SDS011;7010;48.200;16.332;2022-12-04T06:49:56;40.78;;;33.53;;
13879;SDS011;7010;48.200;16.332;2022-12-04T06:52:25;37.42;;;32.42;;
13879;SDS011;7010;48.200;16.332;2022-12-04T06:54:53;52.20;;;36.42;;
13879;SDS011;7010;48.200;16.332;2022-12-04T06:57:22;39.33;;;33.30;;
13879;SDS011;7010;48.200;16.332;2022-12-04T06:59:50;44.33;;;33.30;;
13879;SDS011;7010;48.200;16.332;2022-12-04T07:02:19;41.38;;;34.28;;
13879;SDS011;7010;48.200;16.332;2022-12-04T07:04:52;39.05;;;33.63;;
13879;SDS011;7010;48.200;16.332;2022-12-04T07:07:22;44.35;;;34.60;;
13879;SDS011;7010;48.200;16.332;2022-12-04T07:09:51;38.78;;;31.98;;
13879;SDS011;7010;48.200;16.332;2022-12-04T07:12:19;44.55;;;33.97;;
13879;SDS011;7010;48.200;16.332;2022-12-04T07:14:48;49.78;;;35.85;;
13879;SDS011;7010;48.200;16.332;2022-12-04T07:17:16;47.95;;;34.83;;
13879;SDS011;7010;48.200;16.332;2022-12-04T07:19:44;68.25;;;36.92;;
13879;SDS011;7010;48.200;16.332;2022-12-04T07:22:14;40.92;;;34.72;;
13879;SDS011;7010;48.200;16.332;2022-12-04T07:24:43;51.40;;;34.70;;
13879;SDS011;7010;48.200;16.332;2022-12-04T07:27:11;42.85;;;34.47;;
13879;SDS011;7010;48.200;16.332;2022-12-04T07:29:39;39.33;;;32.63;;
13879;SDS011;7010;48.200;16.332;2022-12-04T07:32:08;38.47;;;30.85;;
13879;SDS011;7010;48.200;16.332;2022-12-04T07:34:37;51.15;;;34.55;;
13879;SDS011;7010;48.200;16.332;2022-12-04T07:37:05;44.75;;;31.27;;
13879;SDS011;7010;48.200;16.332;2022-12-04T07:39:35;43.13;;;33.25;;
13879;SDS011;7010;48.200;16.332;2022-12-04T07:42:04;37.90;;;33.70;;
13879;SDS011;7010;48.200;16.332;2022-12-04T07:44:32;40.38;;;32.65;;
13879;SDS011;7010;48.200;16.332;2022-12-04T07:47:01;41.78;;;32.90;;
13879;SDS011;7010;48.200;16.332;2022-12-04T07:49:29;38.70;;;31.67;;
13879;SDS011;7010;48.200;16.332;2022-12-04T07:51:58;42.28;;;30.60;;
13879;SDS011;7010;48.200;16.332;2022-12-04T07:54:26;40.00;;;29.88;;
13879;SDS011;7010;48.200;16.332;2022-12-04T07:56:56;42.65;;;31.42;;
13879;SDS011;7010;48.200;16.332;2022-12-04T07:59:24;36.60;;;30.50;;
13879;SDS011;7010;48.200;16.332;2022-12-04T08:01:53;39.25;;;29.55;;
13879;SDS011;7010;48.200;16.332;2022-12-04T08:04:21;33.10;;;29.05;;
13879;SDS011;7010;48.200;16.332;2022-12-04T08:06:50;50.58;;;33.05;;
13879;SDS011;7010;48.200;16.332;2022-12-04T08:09:19;45.13;;;32.30;;
13879;SDS011;7010;48.200;16.332;2022-12-04T08:11:47;39.88;;;30.23;;
13879;SDS011;7010;48.200;16.332;2022-12-04T08:14:20;41.13;;;31.55;;
13879;SDS011;7010;48.200;16.332;2022-12-04T08:16:48;47.33;;;33.45;;
13879;SDS011;7010;48.200;16.332;2022-12-04T08:19:18;41.50;;;31.85;;
13879;SDS011;7010;48.200;16.332;2022-12-04T08:21:46;42.58;;;30.30;;
13879;SDS011;7010;48.200;16.332;2022-12-04T08:24:15;42.17;;;32.40;;
13879;SDS011;7010;48.200;16.332;2022-12-04T08:26:43;47.45;;;31.08;;
13879;SDS011;7010;48.200;16.332;2022-12-04T08:29:12;46.58;;;30.95;;
13879;SDS011;7010;48.200;16.332;2022-12-04T08:31:52;35.35;;;29.75;;
13879;SDS011;7010;48.200;16.332;2022-12-04T08:34:22;56.60;;;30.15;;
13879;SDS011;7010;48.200;16.332;2022-12-04T08:36:50;45.75;;;31.48;;
13879;SDS011;7010;48.200;16.332;2022-12-04T08:39:18;39.75;;;29.08;;
13879;SDS011;7010;48.200;16.332;2022-12-04T08:41:47;39.60;;;29.73;;
13879;SDS011;7010;48.200;16.332;2022-12-04T08:44:22;50.28;;;31.67;;
13879;SDS011;7010;48.200;16.332;2022-12-04T08:46:52;50.78;;;30.60;;
13879;SDS011;7010;48.200;16.332;2022-12-04T08:49:20;42.67;;;28.00;;
13879;SDS011;7010;48.200;16.332;2022-12-04T08:51:48;55.60;;;30.33;;
13879;SDS011;7010;48.200;16.332;2022-12-04T08:54:17;32.35;;;24.77;;
13879;SDS011;7010;48.200;16.332;2022-12-04T08:56:45;40.75;;;27.45;;
13879;SDS011;7010;48.200;16.332;2022-12-04T08:59:13;72.88;;;28.52;;
13879;SDS011;7010;48.200;16.332;2022-12-04T09:01:42;42.08;;;30.10;;
13879;SDS011;7010;48.200;16.332;2022-12-04T09:04:11;47.35;;;30.85;;
13879;SDS011;7010;48.200;16.332;2022-12-04T09:06:40;51.40;;;30.67;;
13879;SDS011;7010;48.200;16.332;2022-12-04T09:09:08;36.33;;;28.13;;
13879;SDS011;7010;48.200;16.332;2022-12-04T09:11:37;43.50;;;28.23;;
13879;SDS011;7010;48.200;16.332;2022-12-04T09:14:06;39.65;;;28.30;;
13879;SDS011;7010;48.200;16.332;2022-12-04T09:16:34;49.45;;;29.05;;
13879;SDS011;7010;48.200;16.332;2022-12-04T09:19:03;46.35;;;33.17;;
13879;SDS011;7010;48.200;16.332;2022-12-04T09:21:33;39.05;;;28.83;;
13879;SDS011;7010;48.200;16.332;2022-12-04T09:24:02;62.58;;;31.70;;
13879;SDS011;7010;48.200;16.332;2022-12-04T09:26:31;35.95;;;27.38;;
13879;SDS011;7010;48.200;16.332;2022-12-04T09:29:00;53.25;;;30.80;;
13879;SDS011;7010;48.200;16.332;2022-12-04T09:31:30;51.38;;;29.33;;
13879;SDS011;7010;48.200;16.332;2022-12-04T09:33:59;42.88;;;29.58;;
13879;SDS011;7010;48.200;16.332;2022-12-04T09:36:28;45.13;;;31.27;;
13879;SDS011;7010;48.200;16.332;2022-12-04T09:38:58;39.75;;;30.23;;
13879;SDS011;7010;48.200;16.332;2022-12-04T09:44:21;66.63;;;31.83;;
13879;SDS011;7010;48.200;16.332;2022-12-04T09:46:57;52.95;;;31.05;;
13879;SDS011;7010;48.200;16.332;2022-12-04T09:49:28;44.50;;;31.63;;
13879;SDS011;7010;48.200;16.332;2022-12-04T09:52:05;42.47;;;29.27;;
13879;SDS011;7010;48.200;16.332;2022-12-04T09:54:38;46.53;;;30.67;;
13879;SDS011;7010;48.200;16.332;2022-12-04T09:57:11;41.15;;;30.08;;
13879;SDS011;7010;48.200;16.332;2022-12-04T09:59:43;48.53;;;29.65;;
13879;SDS011;7010;48.200;16.332;2022-12-04T10:02:18;68.35;;;33.33;;
13879;SDS011;7010;48.200;16.332;2022-12-04T10:04:58;43.10;;;30.52;;
13879;SDS011;7010;48.200;16.332;2022-12-04T10:07:28;65.97;;;33.35;;
13879;SDS011;7010;48.200;16.332;2022-12-04T10:10:03;41.88;;;30.88;;
13879;SDS011;7010;48.200;16.332;2022-12-04T10:12:37;44.20;;;30.25;;
13879;SDS011;7010;48.200;16.332;2022-12-04T10:15:19;43.20;;;30.55;;
13879;SDS011;7010;48.200;16.332;2022-12-04T10:18:02;50.33;;;33.65;;
13879;SDS011;7010;48.200;16.332;2022-12-04T10:20:54;46.63;;;33.70;;
13879;SDS011;7010;48.200;16.332;2022-12-04T10:23:36;45.30;;;33.80;;
13879;SDS011;7010;48.200;16.332;2022-12-04T10:26:14;37.65;;;30.13;;
13879;SDS011;7010;48.200;16.332;2022-12-04T10:28:45;43.92;;;27.63;;
13879;SDS011;7010;48.200;16.332;2022-12-04T10:31:20;39.67;;;29.98;;
13879;SDS011;7010;48.200;16.332;2022-12-04T10:33:50;35.50;;;27.77;;
13879;SDS011;7010;48.200;16.332;2022-12-04T10:36:27;46.28;;;31.27;;
13879;SDS011;7010;48.200;16.332;2022-12-04T10:39:04;43.70;;;30.95;;
13879;SDS011;7010;48.200;16.332;2022-12-04T10:41:39;37.70;;;28.73;;
13879;SDS011;7010;48.200;16.332;2022-12-04T10:44:12;38.95;;;26.35;;
13879;SDS011;7010;48.200;16.332;2022-12-04T10:46:42;33.90;;;26.45;;
13879;SDS011;7010;48.200;16.332;2022-12-04T10:49:14;29.38;;;25.50;;
13879;SDS011;7010;48.200;16.332;2022-12-04T10:51:45;33.10;;;24.75;;
13879;SDS011;7010;48.200;16.332;2022-12-04T10:54:17;33.35;;;24.75;;
13879;SDS011;7010;48.200;16.332;2022-12-04T10:56:54;32.95;;;25.85;;
13879;SDS011;7010;48.200;16.332;2022-12-04T10:59:24;28.80;;;24.40;;
13879;SDS011;7010;48.200;16.332;2022-12-04T11:01:58;39.05;;;25.30;;
13879;SDS011;7010;48.200;16.332;2022-12-04T11:04:32;41.50;;;23.42;;
13879;SDS011;7010;48.200;16.332;2022-12-04T11:07:02;30.50;;;23.65;;
13879;SDS011;7010;48.200;16.332;2022-12-04T11:09:34;31.27;;;21.60;;
13879;SDS011;7010;48.200;16.332;2022-12-04T11:12:06;26.00;;;20.52;;
13879;SDS011;7010;48.200;16.332;2022-12-04T11:14:36;22.30;;;19.55;;
13879;SDS011;7010;48.200;16.332;2022-12-04T11:17:13;23.05;;;19.67;;
13879;SDS011;7010;48.200;16.332;2022-12-04T11:19:44;21.80;;;18.10;;
13879;SDS011;7010;48.200;16.332;2022-12-04T11:22:13;22.30;;;17.75;;
13879;SDS011;7010;48.200;16.332;2022-12-04T11:24:48;25.88;;;21.00;;
13879;SDS011;7010;48.200;16.332;2022-12-04T11:27:23;27.02;;;20.23;;
13879;SDS011;7010;48.200;16.332;2022-12-04T11:29:53;22.35;;;19.00;;
13879;SDS011;7010;48.200;16.332;2022-12-04T11:32:24;19.27;;;17.17;;
13879;SDS011;7010;48.200;16.332;2022-12-04T11:34:57;16.73;;;14.90;;
13879;SDS011;7010;48.200;16.332;2022-12-04T11:37:29;18.92;;;16.52;;
13879;SDS011;7010;48.200;16.332;2022-12-04T11:40:05;20.27;;;16.25;;
13879;SDS011;7010;48.200;16.332;2022-12-04T11:42:54;28.17;;;18.15;;
13879;SDS011;7010;48.200;16.332;2022-12-04T11:45:25;23.63;;;17.85;;
13879;SDS011;7010;48.200;16.332;2022-12-04T11:47:54;23.73;;;18.02;;
13879;SDS011;7010;48.200;16.332;2022-12-04T11:50:27;18.75;;;16.17;;
13879;SDS011;7010;48.200;16.332;2022-12-04T11:53:04;17.75;;;15.50;;
13879;SDS011;7010;48.200;16.332;2022-12-04T11:55:45;21.08;;;16.42;;
13879;SDS011;7010;48.200;16.332;2022-12-04T12:01:27;20.70;;;16.95;;
13879;SDS011;7010;48.200;16.332;2022-12-04T12:07:12;17.63;;;14.68;;
13879;SDS011;7010;48.200;16.332;2022-12-04T12:09:53;15.60;;;14.02;;
13879;SDS011;7010;48.200;16.332;2022-12-04T12:12:33;22.90;;;16.67;;
13879;SDS011;7010;48.200;16.332;2022-12-04T12:15:13;21.10;;;16.33;;
13879;SDS011;7010;48.200;16.332;2022-12-04T12:17:54;18.67;;;16.25;;
13879;SDS011;7010;48.200;16.332;2022-12-04T12:20:35;16.52;;;14.60;;
13879;SDS011;7010;48.200;16.332;2022-12-04T12:23:14;25.48;;;18.60;;
13879;SDS011;7010;48.200;16.332;2022-12-04T12:25:52;20.10;;;16.55;;
13879;SDS011;7010;48.200;16.332;2022-12-04T12:28:30;19.75;;;16.27;;
13879;SDS011;7010;48.200;16.332;2022-12-04T12:31:16;21.20;;;15.32;;
13879;SDS011;7010;48.200;16.332;2022-12-04T12:33:55;20.15;;;17.83;;
13879;SDS011;7010;48.200;16.332;2022-12-04T12:36:30;23.05;;;16.45;;
13879;SDS011;7010;48.200;16.332;2022-12-04T12:39:10;18.50;;;16.05;;
13879;SDS011;7010;48.200;16.332;2022-12-04T12:41:45;20.15;;;16.75;;
13879;SDS011;7010;48.200;16.332;2022-12-04T12:44:18;23.05;;;16.38;;
13879;SDS011;7010;48.200;16.332;2022-12-04T12:46:53;18.42;;;15.98;;
13879;SDS011;7010;48.200;16.332;2022-12-04T12:49:25;19.83;;;16.40;;
13879;SDS011;7010;48.200;16.332;2022-12-04T12:52:01;21.30;;;16.40;;
13879;SDS011;7010;48.200;16.332;2022-12-04T12:54:38;18.52;;;15.82;;
13879;SDS011;7010;48.200;16.332;2022-12-04T12:57:10;20.15;;;15.63;;
13879;SDS011;7010;48.200;16.332;2022-12-04T12:59:45;21.58;;;16.58;;
13879;SDS011;7010;48.200;16.332;2022-12-04T13:02:20;16.23;;;14.40;;
13879;SDS011;7010;48.200;16.332;2022-12-04T13:04:54;17.42;;;15.38;;
13879;SDS011;7010;48.200;16.332;2022-12-04T13:07:26;18.60;;;16.63;;
13879;SDS011;7010;48.200;16.332;2022-12-04T13:10:05;33.30;;;16.35;;
13879;SDS011;7010;48.200;16.332;2022-12-04T13:12:41;18.83;;;15.52;;
13879;SDS011;7010;48.200;16.332;2022-12-04T13:15:13;27.17;;;16.08;;
13879;SDS011;7010;48.200;16.332;2022-12-04T13:17:45;21.20;;;15.38;;
13879;SDS011;7010;48.200;16.332;2022-12-04T13:20:17;19.95;;;15.88;;
13879;SDS011;7010;48.200;16.332;2022-12-04T13:22:50;15.77;;;14.05;;
13879;SDS011;7010;48.200;16.332;2022-12-04T13:25:35;22.73;;;14.13;;
13879;SDS011;7010;48.200;16.332;2022-12-04T13:28:17;20.27;;;16.35;;
13879;SDS011;7010;48.200;16.332;2022-12-04T13:30:55;16.80;;;14.32;;
13879;SDS011;7010;48.200;16.332;2022-12-04T13:33:37;18.60;;;16.55;;
13879;SDS011;7010;48.200;16.332;2022-12-04T13:36:34;17.95;;;14.57;;
13879;SDS011;7010;48.200;16.332;2022-12-04T13:39:21;21.08;;;16.25;;
13879;SDS011;7010;48.200;16.332;2022-12-04T13:42:15;22.25;;;16.83;;
13879;SDS011;7010;48.200;16.332;2022-12-04T13:44:52;16.27;;;14.60;;
13879;SDS011;7010;48.200;16.332;2022-12-04T13:47:24;18.30;;;15.63;;
13879;SDS011;7010;48.200;16.332;2022-12-04T13:50:07;22.05;;;16.90;;
13879;SDS011;7010;48.200;16.332;2022-12-04T13:52:52;21.55;;;16.77;;
13879;SDS011;7010;48.200;16.332;2022-12-04T13:55:23;21.98;;;16.90;;
13879;SDS011;7010;48.200;16.332;2022-12-04T13:57:53;20.58;;;17.73;;
13879;SDS011;7010;48.200;16.332;2022-12-04T14:00:24;30.10;;;18.45;;
13879;SDS011;7010;48.200;16.332;2022-12-04T14:02:54;21.75;;;18.33;;
13879;SDS011;7010;48.200;16.332;2022-12-04T14:05:28;22.00;;;18.15;;
13879;SDS011;7010;48.200;16.332;2022-12-04T14:08:00;18.33;;;15.95;;
13879;SDS011;7010;48.200;16.332;2022-12-04T14:10:34;25.13;;;17.88;;
13879;SDS011;7010;48.200;16.332;2022-12-04T14:13:05;16.92;;;15.02;;
13879;SDS011;7010;48.200;16.332;2022-12-04T14:15:45;18.70;;;16.70;;
13879;SDS011;7010;48.200;16.332;2022-12-04T14:18:16;18.85;;;16.92;;
13879;SDS011;7010;48.200;16.332;2022-12-04T14:20:58;20.63;;;17.52;;
13879;SDS011;7010;48.200;16.332;2022-12-04T14:23:33;22.17;;;17.92;;
13879;SDS011;7010;48.200;16.332;2022-12-04T14:26:04;17.77;;;15.98;;
13879;SDS011;7010;48.200;16.332;2022-12-04T14:28:45;36.38;;;18.75;;
13879;SDS011;7010;48.200;16.332;2022-12-04T14:31:21;21.90;;;17.98;;
13879;SDS011;7010;48.200;16.332;2022-12-04T14:33:57;22.10;;;18.23;;
13879;SDS011;7010;48.200;16.332;2022-12-04T14:36:29;24.67;;;18.52;;
13879;SDS011;7010;48.200;16.332;2022-12-04T14:39:03;27.70;;;18.98;;
13879;SDS011;7010;48.200;16.332;2022-12-04T14:41:34;21.70;;;17.02;;
13879;SDS011;7010;48.200;16.332;2022-12-04T14:44:03;21.15;;;17.35;;
13879;SDS011;7010;48.200;16.332;2022-12-04T14:46:35;18.73;;;16.70;;
13879;SDS011;7010;48.200;16.332;2022-12-04T14:49:17;25.30;;;19.33;;
13879;SDS011;7010;48.200;16.332;2022-12-04T14:51:58;22.75;;;17.45;;
13879;SDS011;7010;48.200;16.332;2022-12-04T14:54:35;22.42;;;18.00;;
13879;SDS011;7010;48.200;16.332;2022-12-04T14:57:18;18.10;;;15.05;;
13879;SDS011;7010;48.200;16.332;2022-12-04T14:59:57;23.10;;;16.35;;
13879;SDS011;7010;48.200;16.332;2022-12-04T15:02:32;15.93;;;14.13;;